sensor_id;sensor_type;location;lat;lon;timestamp;temperature;humidity
21627;DHT22;10975;47.872;12.972;2023-06-22T00:00:54;20.70;99.90
21627;DHT22;10975;47.872;12.972;2023-06-22T00:03:22;20.70;99.90
21627;DHT22;10975;47.872;12.972;2023-06-22T00:05:49;20.70;99.90
21627;DHT22;10975;47.872;12.972;2023-06-22T00:08:16;20.70;99.90
21627;DHT22;10975;47.872;12.972;2023-06-22T00:10:43;20.60;99.90
21627;DHT22;10975;47.872;12.972;2023-06-22T00:13:10;20.60;99.90
21627;DHT22;10975;47.872;12.972;2023-06-22T00:15:37;20.50;99.90
21627;DHT22;10975;47.872;12.972;2023-06-22T00:18:06;20.50;99.90
21627;DHT22;10975;47.872;12.972;2023-06-22T00:20:32;20.50;99.90
21627;DHT22;10975;47.872;12.972;2023-06-22T00:23:03;20.50;99.90
21627;DHT22;10975;47.872;12.972;2023-06-22T00:25:35;20.40;99.90
21627;DHT22;10975;47.872;12.972;2023-06-22T00:28:02;20.40;99.90
21627;DHT22;10975;47.872;12.972;2023-06-22T00:30:30;20.40;99.90
21627;DHT22;10975;47.872;12.972;2023-06-22T00:32:57;20.40;99.90
21627;DHT22;10975;47.872;12.972;2023-06-22T00:35:25;20.30;99.90
21627;DHT22;10975;47.872;12.972;2023-06-22T00:37:58;20.30;99.90
21627;DHT22;10975;47.872;12.972;2023-06-22T00:40:30;20.30;99.90
21627;DHT22;10975;47.872;12.972;2023-06-22T00:42:58;20.30;99.90
21627;DHT22;10975;47.872;12.972;2023-06-22T00:45:25;20.30;99.90
21627;DHT22;10975;47.872;12.972;2023-06-22T00:47:52;20.30;99.90
21627;DHT22;10975;47.872;12.972;2023-06-22T00:50:22;20.30;99.90
21627;DHT22;10975;47.872;12.972;2023-06-22T00:52:50;20.20;99.90
21627;DHT22;10975;47.872;12.972;2023-06-22T00:55:18;20.20;99.90
21627;DHT22;10975;47.872;12.972;2023-06-22T00:57:46;20.20;99.90
21627;DHT22;10975;47.872;12.972;2023-06-22T01:00:13;20.20;99.90
21627;DHT22;10975;47.872;12.972;2023-06-22T01:02:41;20.20;99.90
21627;DHT22;10975;47.872;12.972;2023-06-22T01:05:08;20.20;99.90
21627;DHT22;10975;47.872;12.972;2023-06-22T01:07:35;20.30;99.90
21627;DHT22;10975;47.872;12.972;2023-06-22T01:10:14;20.30;99.90
21627;DHT22;10975;47.872;12.972;2023-06-22T01:12:44;20.20;99.90
21627;DHT22;10975;47.872;12.972;2023-06-22T01:15:13;20.20;99.90
21627;DHT22;10975;47.872;12.972;2023-06-22T01:17:42;20.10;99.90
21627;DHT22;10975;47.872;12.972;2023-06-22T01:20:10;20.00;99.90
21627;DHT22;10975;47.872;12.972;2023-06-22T01:22:44;20.00;99.90
21627;DHT22;10975;47.872;12.972;2023-06-22T01:25:26;20.00;99.90
21627;DHT22;10975;47.872;12.972;2023-06-22T01:30:30;20.00;99.90
21627;DHT22;10975;47.872;12.972;2023-06-22T01:33:00;20.00;99.90
21627;DHT22;10975;47.872;12.972;2023-06-22T01:35:29;19.90;99.90
21627;DHT22;10975;47.872;12.972;2023-06-22T01:37:56;19.90;99.90
21627;DHT22;10975;47.872;12.972;2023-06-22T01:40:23;19.90;99.90
21627;DHT22;10975;47.872;12.972;2023-06-22T01:42:51;19.80;99.90
21627;DHT22;10975;47.872;12.972;2023-06-22T01:45:18;19.80;99.90
21627;DHT22;10975;47.872;12.972;2023-06-22T01:47:45;19.70;99.90
21627;DHT22;10975;47.872;12.972;2023-06-22T01:50:12;19.70;99.90
21627;DHT22;10975;47.872;12.972;2023-06-22T01:52:39;19.70;99.90
21627;DHT22;10975;47.872;12.972;2023-06-22T01:55:06;19.80;99.90
21627;DHT22;10975;47.872;12.972;2023-06-22T01:57:34;19.80;99.90
21627;DHT22;10975;47.872;12.972;2023-06-22T02:00:03;19.70;99.90
21627;DHT22;10975;47.872;12.972;2023-06-22T02:02:32;19.70;99.90
21627;DHT22;10975;47.872;12.972;2023-06-22T02:05:02;19.70;99.90
21627;DHT22;10975;47.872;12.972;2023-06-22T02:07:31;19.70;99.90
21627;DHT22;10975;47.872;12.972;2023-06-22T02:09:59;19.60;99.90
21627;DHT22;10975;47.872;12.972;2023-06-22T02:12:27;19.60;99.90
21627;DHT22;10975;47.872;12.972;2023-06-22T02:14:55;19.50;99.90
21627;DHT22;10975;47.872;12.972;2023-06-22T02:17:21;19.50;99.90
21627;DHT22;10975;47.872;12.972;2023-06-22T02:19:49;19.40;99.90
21627;DHT22;10975;47.872;12.972;2023-06-22T02:22:16;19.40;99.90
21627;DHT22;10975;47.872;12.972;2023-06-22T02:24:43;19.40;99.90
21627;DHT22;10975;47.872;12.972;2023-06-22T02:27:09;19.40;99.90
21627;DHT22;10975;47.872;12.972;2023-06-22T02:29:36;19.30;99.90
21627;DHT22;10975;47.872;12.972;2023-06-22T02:32:03;19.30;99.90
21627;DHT22;10975;47.872;12.972;2023-06-22T02:34:31;19.30;99.90
21627;DHT22;10975;47.872;12.972;2023-06-22T02:37:00;19.30;99.90
21627;DHT22;10975;47.872;12.972;2023-06-22T02:39:28;19.30;99.90
21627;DHT22;10975;47.872;12.972;2023-06-22T02:41:55;19.30;99.90
21627;DHT22;10975;47.872;12.972;2023-06-22T02:44:22;19.30;99.90
21627;DHT22;10975;47.872;12.972;2023-06-22T02:46:49;19.20;99.90
21627;DHT22;10975;47.872;12.972;2023-06-22T02:49:15;19.20;99.90
21627;DHT22;10975;47.872;12.972;2023-06-22T02:51:44;19.20;99.90
21627;DHT22;10975;47.872;12.972;2023-06-22T02:54:11;19.20;99.90
21627;DHT22;10975;47.872;12.972;2023-06-22T02:56:38;19.20;99.90
21627;DHT22;10975;47.872;12.972;2023-06-22T02:59:07;19.10;99.90
21627;DHT22;10975;47.872;12.972;2023-06-22T03:01:33;19.10;99.90
21627;DHT22;10975;47.872;12.972;2023-06-22T03:04:06;19.10;99.90
21627;DHT22;10975;47.872;12.972;2023-06-22T03:06:34;19.00;99.90
21627;DHT22;10975;47.872;12.972;2023-06-22T03:09:02;19.00;99.90
21627;DHT22;10975;47.872;12.972;2023-06-22T03:11:30;19.00;99.90
21627;DHT22;10975;47.872;12.972;2023-06-22T03:13:57;19.10;99.90
21627;DHT22;10975;47.872;12.972;2023-06-22T03:16:24;19.00;99.90
21627;DHT22;10975;47.872;12.972;2023-06-22T03:18:51;19.10;99.90
21627;DHT22;10975;47.872;12.972;2023-06-22T03:21:18;19.00;99.90
21627;DHT22;10975;47.872;12.972;2023-06-22T03:23:44;19.10;99.90
21627;DHT22;10975;47.872;12.972;2023-06-22T03:26:11;19.00;99.90
21627;DHT22;10975;47.872;12.972;2023-06-22T03:28:38;19.00;99.90
21627;DHT22;10975;47.872;12.972;2023-06-22T03:31:05;19.00;99.90
21627;DHT22;10975;47.872;12.972;2023-06-22T03:33:33;19.00;99.90
21627;DHT22;10975;47.872;12.972;2023-06-22T03:36:00;19.00;99.90
21627;DHT22;10975;47.872;12.972;2023-06-22T03:38:27;19.00;99.90
21627;DHT22;10975;47.872;12.972;2023-06-22T03:40:53;19.00;99.90
21627;DHT22;10975;47.872;12.972;2023-06-22T03:43:20;19.00;99.90
21627;DHT22;10975;47.872;12.972;2023-06-22T03:45:47;19.00;99.90
21627;DHT22;10975;47.872;12.972;2023-06-22T03:48:13;19.00;99.90
21627;DHT22;10975;47.872;12.972;2023-06-22T03:50:40;19.10;99.90
21627;DHT22;10975;47.872;12.972;2023-06-22T03:53:07;19.10;99.90
21627;DHT22;10975;47.872;12.972;2023-06-22T03:55:33;19.10;99.90
21627;DHT22;10975;47.872;12.972;2023-06-22T03:58:00;19.10;99.90
21627;DHT22;10975;47.872;12.972;2023-06-22T04:00:32;19.10;99.90
21627;DHT22;10975;47.872;12.972;2023-06-22T04:02:59;19.00;99.90
21627;DHT22;10975;47.872;12.972;2023-06-22T04:05:26;18.90;99.90
21627;DHT22;10975;47.872;12.972;2023-06-22T04:07:52;18.90;99.90
21627;DHT22;10975;47.872;12.972;2023-06-22T04:10:19;19.00;99.90
21627;DHT22;10975;47.872;12.972;2023-06-22T04:12:46;19.00;99.90
21627;DHT22;10975;47.872;12.972;2023-06-22T04:15:13;19.10;99.90
21627;DHT22;10975;47.872;12.972;2023-06-22T04:17:40;19.20;99.90
21627;DHT22;10975;47.872;12.972;2023-06-22T04:20:07;19.30;99.90
21627;DHT22;10975;47.872;12.972;2023-06-22T04:22:34;19.40;99.90
21627;DHT22;10975;47.872;12.972;2023-06-22T04:25:01;19.50;99.90
21627;DHT22;10975;47.872;12.972;2023-06-22T04:27:27;19.60;99.90
21627;DHT22;10975;47.872;12.972;2023-06-22T04:29:54;19.70;99.90
21627;DHT22;10975;47.872;12.972;2023-06-22T04:32:21;19.70;99.90
21627;DHT22;10975;47.872;12.972;2023-06-22T04:34:47;19.80;99.90
21627;DHT22;10975;47.872;12.972;2023-06-22T04:37:14;19.80;99.90
21627;DHT22;10975;47.872;12.972;2023-06-22T04:39:42;19.90;99.90
21627;DHT22;10975;47.872;12.972;2023-06-22T04:42:09;20.00;99.90
21627;DHT22;10975;47.872;12.972;2023-06-22T04:44:36;20.10;99.90
21627;DHT22;10975;47.872;12.972;2023-06-22T04:47:03;20.10;99.90
21627;DHT22;10975;47.872;12.972;2023-06-22T04:49:30;20.20;99.90
21627;DHT22;10975;47.872;12.972;2023-06-22T04:52:05;20.30;99.90
21627;DHT22;10975;47.872;12.972;2023-06-22T04:54:32;20.30;99.90
21627;DHT22;10975;47.872;12.972;2023-06-22T04:57:02;20.40;99.90
21627;DHT22;10975;47.872;12.972;2023-06-22T04:59:29;20.40;99.90
21627;DHT22;10975;47.872;12.972;2023-06-22T05:01:57;20.50;99.90
21627;DHT22;10975;47.872;12.972;2023-06-22T05:04:24;20.60;99.90
21627;DHT22;10975;47.872;12.972;2023-06-22T05:06:52;20.60;99.90
21627;DHT22;10975;47.872;12.972;2023-06-22T05:09:19;20.70;99.90
21627;DHT22;10975;47.872;12.972;2023-06-22T05:11:45;20.80;99.90
21627;DHT22;10975;47.872;12.972;2023-06-22T05:14:14;20.90;99.90
21627;DHT22;10975;47.872;12.972;2023-06-22T05:16:41;21.00;99.90
21627;DHT22;10975;47.872;12.972;2023-06-22T05:19:08;21.10;99.90
21627;DHT22;10975;47.872;12.972;2023-06-22T05:21:35;21.20;99.90
21627;DHT22;10975;47.872;12.972;2023-06-22T05:24:02;21.20;99.90
21627;DHT22;10975;47.872;12.972;2023-06-22T05:26:30;21.40;99.90
21627;DHT22;10975;47.872;12.972;2023-06-22T05:28:57;21.50;99.90
21627;DHT22;10975;47.872;12.972;2023-06-22T05:31:24;21.70;99.90
21627;DHT22;10975;47.872;12.972;2023-06-22T05:33:51;21.80;99.90
21627;DHT22;10975;47.872;12.972;2023-06-22T05:36:18;21.90;99.90
21627;DHT22;10975;47.872;12.972;2023-06-22T05:38:46;22.10;99.90
21627;DHT22;10975;47.872;12.972;2023-06-22T05:41:13;22.20;99.90
21627;DHT22;10975;47.872;12.972;2023-06-22T05:43:40;22.30;99.90
21627;DHT22;10975;47.872;12.972;2023-06-22T05:46:07;22.30;99.90
21627;DHT22;10975;47.872;12.972;2023-06-22T05:48:33;22.30;99.90
21627;DHT22;10975;47.872;12.972;2023-06-22T05:51:00;22.20;99.90
21627;DHT22;10975;47.872;12.972;2023-06-22T05:53:27;22.10;99.90
21627;DHT22;10975;47.872;12.972;2023-06-22T05:55:53;22.00;99.90
21627;DHT22;10975;47.872;12.972;2023-06-22T05:58:20;22.00;99.90
21627;DHT22;10975;47.872;12.972;2023-06-22T06:00:47;21.90;99.90
21627;DHT22;10975;47.872;12.972;2023-06-22T06:03:14;21.90;99.90
21627;DHT22;10975;47.872;12.972;2023-06-22T06:11:01;22.00;99.90
21627;DHT22;10975;47.872;12.972;2023-06-22T06:13:28;22.00;99.90
21627;DHT22;10975;47.872;12.972;2023-06-22T06:15:55;22.30;99.90
21627;DHT22;10975;47.872;12.972;2023-06-22T06:18:22;22.40;99.90
21627;DHT22;10975;47.872;12.972;2023-06-22T06:20:49;22.60;99.90
21627;DHT22;10975;47.872;12.972;2023-06-22T06:23:16;22.60;99.90
21627;DHT22;10975;47.872;12.972;2023-06-22T06:25:42;22.70;99.90
21627;DHT22;10975;47.872;12.972;2023-06-22T06:28:09;22.80;99.90
21627;DHT22;10975;47.872;12.972;2023-06-22T06:30:36;22.90;99.90
21627;DHT22;10975;47.872;12.972;2023-06-22T06:33:03;22.90;99.90
21627;DHT22;10975;47.872;12.972;2023-06-22T06:35:35;22.90;99.90
21627;DHT22;10975;47.872;12.972;2023-06-22T06:38:02;23.00;99.90
21627;DHT22;10975;47.872;12.972;2023-06-22T06:40:29;23.00;99.90
21627;DHT22;10975;47.872;12.972;2023-06-22T06:42:58;23.10;99.90
21627;DHT22;10975;47.872;12.972;2023-06-22T06:45:25;23.20;99.90
21627;DHT22;10975;47.872;12.972;2023-06-22T06:47:53;23.30;99.90
21627;DHT22;10975;47.872;12.972;2023-06-22T06:50:20;23.40;99.90
21627;DHT22;10975;47.872;12.972;2023-06-22T06:52:46;23.50;99.90
21627;DHT22;10975;47.872;12.972;2023-06-22T06:55:13;23.70;99.90
21627;DHT22;10975;47.872;12.972;2023-06-22T06:57:41;23.70;99.90
21627;DHT22;10975;47.872;12.972;2023-06-22T07:00:10;23.80;99.90
21627;DHT22;10975;47.872;12.972;2023-06-22T07:02:43;23.90;99.90
21627;DHT22;10975;47.872;12.972;2023-06-22T07:05:10;23.90;99.90
21627;DHT22;10975;47.872;12.972;2023-06-22T07:07:37;24.00;99.90
21627;DHT22;10975;47.872;12.972;2023-06-22T07:10:05;24.10;99.90
21627;DHT22;10975;47.872;12.972;2023-06-22T07:12:32;24.10;99.90
21627;DHT22;10975;47.872;12.972;2023-06-22T07:15:06;24.20;99.90
21627;DHT22;10975;47.872;12.972;2023-06-22T07:17:36;24.30;99.90
21627;DHT22;10975;47.872;12.972;2023-06-22T07:20:03;24.30;99.90
21627;DHT22;10975;47.872;12.972;2023-06-22T07:22:36;24.40;99.90
21627;DHT22;10975;47.872;12.972;2023-06-22T07:25:03;24.30;99.90
21627;DHT22;10975;47.872;12.972;2023-06-22T07:27:38;24.50;99.90
21627;DHT22;10975;47.872;12.972;2023-06-22T07:30:09;24.50;99.90
21627;DHT22;10975;47.872;12.972;2023-06-22T07:32:36;24.60;99.90
21627;DHT22;10975;47.872;12.972;2023-06-22T07:35:03;24.70;99.90
21627;DHT22;10975;47.872;12.972;2023-06-22T07:37:31;24.80;99.90
21627;DHT22;10975;47.872;12.972;2023-06-22T07:39:59;24.90;99.90
21627;DHT22;10975;47.872;12.972;2023-06-22T07:42:26;25.00;99.90
21627;DHT22;10975;47.872;12.972;2023-06-22T07:44:53;25.10;99.90
21627;DHT22;10975;47.872;12.972;2023-06-22T07:47:20;25.20;99.90
21627;DHT22;10975;47.872;12.972;2023-06-22T07:49:51;25.20;99.90
21627;DHT22;10975;47.872;12.972;2023-06-22T07:52:21;25.40;99.90
21627;DHT22;10975;47.872;12.972;2023-06-22T07:54:47;25.40;99.90
21627;DHT22;10975;47.872;12.972;2023-06-22T07:57:14;25.40;99.90
21627;DHT22;10975;47.872;12.972;2023-06-22T08:02:39;25.60;99.90
21627;DHT22;10975;47.872;12.972;2023-06-22T08:05:09;25.60;99.90
21627;DHT22;10975;47.872;12.972;2023-06-22T08:07:46;25.70;99.90
21627;DHT22;10975;47.872;12.972;2023-06-22T08:10:14;25.80;99.90
21627;DHT22;10975;47.872;12.972;2023-06-22T08:12:42;25.90;99.90
21627;DHT22;10975;47.872;12.972;2023-06-22T08:15:11;25.90;99.90
21627;DHT22;10975;47.872;12.972;2023-06-22T08:17:39;26.00;99.90
21627;DHT22;10975;47.872;12.972;2023-06-22T08:20:06;26.00;99.90
21627;DHT22;10975;47.872;12.972;2023-06-22T08:22:37;26.10;99.90
21627;DHT22;10975;47.872;12.972;2023-06-22T08:25:04;26.20;99.90
21627;DHT22;10975;47.872;12.972;2023-06-22T08:27:31;26.30;99.90
21627;DHT22;10975;47.872;12.972;2023-06-22T08:30:00;26.40;99.90
21627;DHT22;10975;47.872;12.972;2023-06-22T08:32:27;26.50;99.90
21627;DHT22;10975;47.872;12.972;2023-06-22T08:34:55;26.60;99.90
21627;DHT22;10975;47.872;12.972;2023-06-22T08:37:24;26.70;99.90
21627;DHT22;10975;47.872;12.972;2023-06-22T08:39:59;26.70;99.90
21627;DHT22;10975;47.872;12.972;2023-06-22T08:42:27;26.80;99.90
21627;DHT22;10975;47.872;12.972;2023-06-22T08:44:55;26.90;99.90
21627;DHT22;10975;47.872;12.972;2023-06-22T08:47:22;27.00;99.90
21627;DHT22;10975;47.872;12.972;2023-06-22T08:49:49;27.10;99.90
21627;DHT22;10975;47.872;12.972;2023-06-22T08:52:17;27.20;99.90
21627;DHT22;10975;47.872;12.972;2023-06-22T08:54:44;27.30;99.90
21627;DHT22;10975;47.872;12.972;2023-06-22T08:57:10;27.30;99.90
21627;DHT22;10975;47.872;12.972;2023-06-22T08:59:37;27.40;99.90
21627;DHT22;10975;47.872;12.972;2023-06-22T09:02:04;27.50;99.90
21627;DHT22;10975;47.872;12.972;2023-06-22T09:04:31;27.60;99.90
21627;DHT22;10975;47.872;12.972;2023-06-22T09:07:01;27.70;99.90
21627;DHT22;10975;47.872;12.972;2023-06-22T09:09:28;27.80;99.90
21627;DHT22;10975;47.872;12.972;2023-06-22T09:11:55;27.70;99.90
21627;DHT22;10975;47.872;12.972;2023-06-22T09:14:22;27.80;99.90
21627;DHT22;10975;47.872;12.972;2023-06-22T09:16:48;27.80;99.90
21627;DHT22;10975;47.872;12.972;2023-06-22T09:19:15;27.90;99.90
21627;DHT22;10975;47.872;12.972;2023-06-22T09:21:42;28.00;99.90
21627;DHT22;10975;47.872;12.972;2023-06-22T09:24:08;28.00;99.90
21627;DHT22;10975;47.872;12.972;2023-06-22T09:26:35;27.90;99.90
21627;DHT22;10975;47.872;12.972;2023-06-22T09:29:04;28.00;99.90
21627;DHT22;10975;47.872;12.972;2023-06-22T09:31:31;28.20;99.90
21627;DHT22;10975;47.872;12.972;2023-06-22T09:33:58;28.30;99.90
21627;DHT22;10975;47.872;12.972;2023-06-22T09:36:25;28.30;99.90
21627;DHT22;10975;47.872;12.972;2023-06-22T09:38:54;28.40;99.90
21627;DHT22;10975;47.872;12.972;2023-06-22T09:41:27;28.60;99.90
21627;DHT22;10975;47.872;12.972;2023-06-22T09:43:53;28.70;99.90
21627;DHT22;10975;47.872;12.972;2023-06-22T09:46:24;28.70;99.90
21627;DHT22;10975;47.872;12.972;2023-06-22T09:48:54;28.70;99.90
21627;DHT22;10975;47.872;12.972;2023-06-22T09:51:21;28.70;99.90
21627;DHT22;10975;47.872;12.972;2023-06-22T09:53:50;28.80;99.90
21627;DHT22;10975;47.872;12.972;2023-06-22T09:56:17;29.00;99.90
21627;DHT22;10975;47.872;12.972;2023-06-22T09:58:44;29.10;99.90
21627;DHT22;10975;47.872;12.972;2023-06-22T10:01:11;29.30;99.90
21627;DHT22;10975;47.872;12.972;2023-06-22T10:03:38;29.40;99.90
21627;DHT22;10975;47.872;12.972;2023-06-22T10:06:05;29.60;99.90
21627;DHT22;10975;47.872;12.972;2023-06-22T10:08:31;29.70;99.90
21627;DHT22;10975;47.872;12.972;2023-06-22T10:10:58;29.70;99.90
21627;DHT22;10975;47.872;12.972;2023-06-22T10:13:24;29.70;99.90
21627;DHT22;10975;47.872;12.972;2023-06-22T10:15:51;29.70;99.90
21627;DHT22;10975;47.872;12.972;2023-06-22T10:18:19;29.80;99.90
21627;DHT22;10975;47.872;12.972;2023-06-22T10:20:47;29.70;99.90
21627;DHT22;10975;47.872;12.972;2023-06-22T10:23:14;29.60;99.90
21627;DHT22;10975;47.872;12.972;2023-06-22T10:25:41;29.70;99.90
21627;DHT22;10975;47.872;12.972;2023-06-22T10:28:07;29.80;99.90
21627;DHT22;10975;47.872;12.972;2023-06-22T10:30:34;29.90;99.90
21627;DHT22;10975;47.872;12.972;2023-06-22T10:33:01;29.90;99.90
21627;DHT22;10975;47.872;12.972;2023-06-22T10:35:28;29.80;99.90
21627;DHT22;10975;47.872;12.972;2023-06-22T10:37:55;29.90;99.90
21627;DHT22;10975;47.872;12.972;2023-06-22T10:40:22;29.90;99.90
21627;DHT22;10975;47.872;12.972;2023-06-22T10:42:49;29.90;99.90
21627;DHT22;10975;47.872;12.972;2023-06-22T10:45:16;29.90;99.90
21627;DHT22;10975;47.872;12.972;2023-06-22T10:47:43;30.00;99.90
21627;DHT22;10975;47.872;12.972;2023-06-22T10:50:10;30.20;99.90
21627;DHT22;10975;47.872;12.972;2023-06-22T10:52:37;30.20;99.90
21627;DHT22;10975;47.872;12.972;2023-06-22T10:55:04;30.30;99.90
21627;DHT22;10975;47.872;12.972;2023-06-22T10:57:31;30.10;99.90
21627;DHT22;10975;47.872;12.972;2023-06-22T10:59:58;30.30;99.90
21627;DHT22;10975;47.872;12.972;2023-06-22T11:02:24;30.30;99.90
21627;DHT22;10975;47.872;12.972;2023-06-22T11:04:51;30.20;99.90
21627;DHT22;10975;47.872;12.972;2023-06-22T11:07:18;29.90;99.90
21627;DHT22;10975;47.872;12.972;2023-06-22T11:09:45;29.90;99.90
21627;DHT22;10975;47.872;12.972;2023-06-22T11:12:12;29.90;99.90
21627;DHT22;10975;47.872;12.972;2023-06-22T11:14:39;30.00;99.90
21627;DHT22;10975;47.872;12.972;2023-06-22T11:17:05;30.00;99.90
21627;DHT22;10975;47.872;12.972;2023-06-22T11:19:34;30.20;99.90
21627;DHT22;10975;47.872;12.972;2023-06-22T11:22:01;30.20;99.90
21627;DHT22;10975;47.872;12.972;2023-06-22T11:24:28;30.30;99.90
21627;DHT22;10975;47.872;12.972;2023-06-22T11:26:54;30.30;99.90
21627;DHT22;10975;47.872;12.972;2023-06-22T11:29:24;30.50;99.90
21627;DHT22;10975;47.872;12.972;2023-06-22T11:32:03;30.50;99.90
21627;DHT22;10975;47.872;12.972;2023-06-22T11:34:30;30.50;99.90
21627;DHT22;10975;47.872;12.972;2023-06-22T11:36:57;30.50;99.90
21627;DHT22;10975;47.872;12.972;2023-06-22T11:39:24;30.60;99.90
21627;DHT22;10975;47.872;12.972;2023-06-22T11:42:06;30.70;99.90
21627;DHT22;10975;47.872;12.972;2023-06-22T11:44:33;30.80;99.90
21627;DHT22;10975;47.872;12.972;2023-06-22T11:47:00;30.90;99.90
21627;DHT22;10975;47.872;12.972;2023-06-22T11:49:27;30.80;99.90
21627;DHT22;10975;47.872;12.972;2023-06-22T11:51:54;30.90;99.90
21627;DHT22;10975;47.872;12.972;2023-06-22T11:54:20;31.00;99.90
21627;DHT22;10975;47.872;12.972;2023-06-22T11:56:47;31.00;99.90
21627;DHT22;10975;47.872;12.972;2023-06-22T11:59:14;31.00;99.90
21627;DHT22;10975;47.872;12.972;2023-06-22T12:01:40;31.20;99.90
21627;DHT22;10975;47.872;12.972;2023-06-22T12:04:07;31.20;99.90
21627;DHT22;10975;47.872;12.972;2023-06-22T12:06:37;31.10;99.90
21627;DHT22;10975;47.872;12.972;2023-06-22T12:09:04;31.10;99.90
21627;DHT22;10975;47.872;12.972;2023-06-22T12:11:31;31.10;99.90
21627;DHT22;10975;47.872;12.972;2023-06-22T12:13:58;31.20;99.90
21627;DHT22;10975;47.872;12.972;2023-06-22T12:16:28;31.20;99.90
21627;DHT22;10975;47.872;12.972;2023-06-22T12:18:55;31.30;99.90
21627;DHT22;10975;47.872;12.972;2023-06-22T12:21:21;31.40;99.90
21627;DHT22;10975;47.872;12.972;2023-06-22T12:23:48;31.50;99.90
21627;DHT22;10975;47.872;12.972;2023-06-22T12:26:15;31.50;99.90
21627;DHT22;10975;47.872;12.972;2023-06-22T12:28:42;31.50;99.90
21627;DHT22;10975;47.872;12.972;2023-06-22T12:31:08;31.50;99.90
21627;DHT22;10975;47.872;12.972;2023-06-22T12:33:39;31.50;99.90
21627;DHT22;10975;47.872;12.972;2023-06-22T12:36:06;31.60;99.90
21627;DHT22;10975;47.872;12.972;2023-06-22T12:38:33;31.60;99.90
21627;DHT22;10975;47.872;12.972;2023-06-22T12:41:00;31.60;99.90
21627;DHT22;10975;47.872;12.972;2023-06-22T12:43:27;31.80;99.90
21627;DHT22;10975;47.872;12.972;2023-06-22T12:45:53;31.80;99.90
21627;DHT22;10975;47.872;12.972;2023-06-22T12:48:21;31.90;99.90
21627;DHT22;10975;47.872;12.972;2023-06-22T12:50:48;32.00;99.90
21627;DHT22;10975;47.872;12.972;2023-06-22T12:53:15;32.10;99.90
21627;DHT22;10975;47.872;12.972;2023-06-22T12:55:41;32.20;99.90
21627;DHT22;10975;47.872;12.972;2023-06-22T12:58:08;32.40;99.90
21627;DHT22;10975;47.872;12.972;2023-06-22T13:00:35;32.40;99.90
21627;DHT22;10975;47.872;12.972;2023-06-22T13:03:02;32.50;99.90
21627;DHT22;10975;47.872;12.972;2023-06-22T13:05:29;32.60;99.90
21627;DHT22;10975;47.872;12.972;2023-06-22T13:07:57;32.70;99.90
21627;DHT22;10975;47.872;12.972;2023-06-22T13:10:23;32.70;99.90
21627;DHT22;10975;47.872;12.972;2023-06-22T13:12:50;32.70;99.90
21627;DHT22;10975;47.872;12.972;2023-06-22T13:15:16;32.90;99.90
21627;DHT22;10975;47.872;12.972;2023-06-22T13:17:43;32.80;99.90
21627;DHT22;10975;47.872;12.972;2023-06-22T13:20:10;32.80;99.90
21627;DHT22;10975;47.872;12.972;2023-06-22T13:22:37;32.80;99.90
21627;DHT22;10975;47.872;12.972;2023-06-22T13:25:07;32.90;99.90
21627;DHT22;10975;47.872;12.972;2023-06-22T13:27:34;33.00;99.90
21627;DHT22;10975;47.872;12.972;2023-06-22T13:30:00;33.00;99.90
21627;DHT22;10975;47.872;12.972;2023-06-22T13:32:28;32.90;99.90
21627;DHT22;10975;47.872;12.972;2023-06-22T13:34:54;32.90;99.90
21627;DHT22;10975;47.872;12.972;2023-06-22T13:37:21;33.00;99.90
21627;DHT22;10975;47.872;12.972;2023-06-22T13:39:48;33.00;99.90
21627;DHT22;10975;47.872;12.972;2023-06-22T13:42:14;33.10;99.90
21627;DHT22;10975;47.872;12.972;2023-06-22T13:44:41;33.10;99.90
21627;DHT22;10975;47.872;12.972;2023-06-22T13:47:08;33.10;99.90
21627;DHT22;10975;47.872;12.972;2023-06-22T13:49:34;33.20;99.90
21627;DHT22;10975;47.872;12.972;2023-06-22T13:52:01;33.20;99.90
21627;DHT22;10975;47.872;12.972;2023-06-22T13:54:29;33.40;99.90
21627;DHT22;10975;47.872;12.972;2023-06-22T13:56:59;33.40;99.90
21627;DHT22;10975;47.872;12.972;2023-06-22T13:59:26;33.40;99.90
21627;DHT22;10975;47.872;12.972;2023-06-22T14:01:54;33.50;99.90
21627;DHT22;10975;47.872;12.972;2023-06-22T14:04:24;33.40;99.90
21627;DHT22;10975;47.872;12.972;2023-06-22T14:06:51;33.40;99.90
21627;DHT22;10975;47.872;12.972;2023-06-22T14:09:20;33.40;99.90
21627;DHT22;10975;47.872;12.972;2023-06-22T14:11:47;33.40;99.90
21627;DHT22;10975;47.872;12.972;2023-06-22T14:14:14;33.30;99.90
21627;DHT22;10975;47.872;12.972;2023-06-22T14:16:40;33.20;99.90
21627;DHT22;10975;47.872;12.972;2023-06-22T14:19:07;33.10;99.90
21627;DHT22;10975;47.872;12.972;2023-06-22T14:21:34;32.90;99.90
21627;DHT22;10975;47.872;12.972;2023-06-22T14:24:00;33.10;99.90
21627;DHT22;10975;47.872;12.972;2023-06-22T14:26:27;33.30;99.90
21627;DHT22;10975;47.872;12.972;2023-06-22T14:28:53;33.60;99.90
21627;DHT22;10975;47.872;12.972;2023-06-22T14:31:20;33.60;99.90
21627;DHT22;10975;47.872;12.972;2023-06-22T14:33:47;33.60;99.90
21627;DHT22;10975;47.872;12.972;2023-06-22T14:36:17;33.50;99.90
21627;DHT22;10975;47.872;12.972;2023-06-22T14:38:45;33.30;99.90
21627;DHT22;10975;47.872;12.972;2023-06-22T14:41:13;33.10;99.90
21627;DHT22;10975;47.872;12.972;2023-06-22T14:43:48;33.20;99.90
21627;DHT22;10975;47.872;12.972;2023-06-22T14:46:16;33.30;99.90
21627;DHT22;10975;47.872;12.972;2023-06-22T14:48:43;33.50;99.90
21627;DHT22;10975;47.872;12.972;2023-06-22T14:51:11;33.60;99.90
21627;DHT22;10975;47.872;12.972;2023-06-22T14:53:42;33.80;99.90
21627;DHT22;10975;47.872;12.972;2023-06-22T14:56:09;33.70;99.90
21627;DHT22;10975;47.872;12.972;2023-06-22T14:58:36;33.80;99.90
21627;DHT22;10975;47.872;12.972;2023-06-22T15:01:03;33.90;99.90
21627;DHT22;10975;47.872;12.972;2023-06-22T15:03:30;33.90;99.90
21627;DHT22;10975;47.872;12.972;2023-06-22T15:05:58;33.80;99.90
21627;DHT22;10975;47.872;12.972;2023-06-22T15:08:26;33.80;99.90
21627;DHT22;10975;47.872;12.972;2023-06-22T15:10:52;33.90;99.90
21627;DHT22;10975;47.872;12.972;2023-06-22T15:13:19;33.80;99.90
21627;DHT22;10975;47.872;12.972;2023-06-22T15:15:46;33.80;99.10
21627;DHT22;10975;47.872;12.972;2023-06-22T15:18:14;33.80;99.90
21627;DHT22;10975;47.872;12.972;2023-06-22T15:20:41;33.80;99.90
21627;DHT22;10975;47.872;12.972;2023-06-22T15:23:11;33.80;99.90
21627;DHT22;10975;47.872;12.972;2023-06-22T15:25:38;33.90;99.90
21627;DHT22;10975;47.872;12.972;2023-06-22T15:28:06;33.90;99.80